sensor_id;sensor_type;location;lat;lon;timestamp;P1;durP1;ratioP1;P2;durP2;ratioP2
68310;SDS011;55157;51.036;17.058;2023-05-18T00:02:05;23.13;;;6.60;;
68310;SDS011;55157;51.036;17.058;2023-05-18T00:04:30;21.92;;;7.15;;
68310;SDS011;55157;51.036;17.058;2023-05-18T00:06:55;24.27;;;6.95;;
68310;SDS011;55157;51.036;17.058;2023-05-18T00:09:22;22.55;;;7.65;;
68310;SDS011;55157;51.036;17.058;2023-05-18T00:11:48;24.05;;;7.15;;
68310;SDS011;55157;51.036;17.058;2023-05-18T00:14:13;18.50;;;6.55;;
68310;SDS011;55157;51.036;17.058;2023-05-18T00:16:38;19.05;;;6.70;;
68310;SDS011;55157;51.036;17.058;2023-05-18T00:19:04;18.00;;;7.35;;
68310;SDS011;55157;51.036;17.058;2023-05-18T00:21:29;26.88;;;7.13;;
68310;SDS011;55157;51.036;17.058;2023-05-18T00:23:54;24.73;;;6.43;;
68310;SDS011;55157;51.036;17.058;2023-05-18T00:26:21;29.58;;;7.68;;
68310;SDS011;55157;51.036;17.058;2023-05-18T00:28:46;28.42;;;7.90;;
68310;SDS011;55157;51.036;17.058;2023-05-18T00:31:11;22.05;;;6.30;;
68310;SDS011;55157;51.036;17.058;2023-05-18T00:33:36;16.25;;;6.35;;
68310;SDS011;55157;51.036;17.058;2023-05-18T00:36:02;28.55;;;7.75;;
68310;SDS011;55157;51.036;17.058;2023-05-18T00:38:27;23.67;;;8.38;;
68310;SDS011;55157;51.036;17.058;2023-05-18T00:40:52;21.30;;;7.43;;
68310;SDS011;55157;51.036;17.058;2023-05-18T00:43:19;21.60;;;7.03;;
68310;SDS011;55157;51.036;17.058;2023-05-18T00:45:44;21.40;;;7.63;;
68310;SDS011;55157;51.036;17.058;2023-05-18T00:48:10;20.40;;;7.57;;
68310;SDS011;55157;51.036;17.058;2023-05-18T00:50:35;23.58;;;7.13;;
68310;SDS011;55157;51.036;17.058;2023-05-18T00:53:00;26.42;;;6.75;;
68310;SDS011;55157;51.036;17.058;2023-05-18T00:55:25;16.30;;;6.00;;
68310;SDS011;55157;51.036;17.058;2023-05-18T00:57:51;21.35;;;6.75;;
68310;SDS011;55157;51.036;17.058;2023-05-18T01:00:17;25.75;;;6.50;;
68310;SDS011;55157;51.036;17.058;2023-05-18T01:02:43;23.50;;;8.10;;
68310;SDS011;55157;51.036;17.058;2023-05-18T01:05:08;22.25;;;7.00;;
68310;SDS011;55157;51.036;17.058;2023-05-18T01:07:33;17.00;;;5.88;;
68310;SDS011;55157;51.036;17.058;2023-05-18T01:09:58;23.75;;;6.32;;
68310;SDS011;55157;51.036;17.058;2023-05-18T01:12:24;19.05;;;5.72;;
68310;SDS011;55157;51.036;17.058;2023-05-18T01:14:59;19.83;;;6.95;;
68310;SDS011;55157;51.036;17.058;2023-05-18T01:17:31;22.45;;;7.60;;
68310;SDS011;55157;51.036;17.058;2023-05-18T01:20:10;16.98;;;5.70;;
68310;SDS011;55157;51.036;17.058;2023-05-18T01:22:37;21.63;;;6.85;;
68310;SDS011;55157;51.036;17.058;2023-05-18T01:25:09;21.33;;;7.50;;
68310;SDS011;55157;51.036;17.058;2023-05-18T01:27:37;20.20;;;5.63;;
68310;SDS011;55157;51.036;17.058;2023-05-18T01:30:03;18.48;;;6.15;;
68310;SDS011;55157;51.036;17.058;2023-05-18T01:32:29;22.38;;;5.78;;
68310;SDS011;55157;51.036;17.058;2023-05-18T01:34:54;18.60;;;5.68;;
68310;SDS011;55157;51.036;17.058;2023-05-18T01:37:19;18.25;;;5.82;;
68310;SDS011;55157;51.036;17.058;2023-05-18T01:39:44;20.67;;;5.63;;
68310;SDS011;55157;51.036;17.058;2023-05-18T01:42:10;19.83;;;5.88;;
68310;SDS011;55157;51.036;17.058;2023-05-18T01:44:38;17.17;;;6.32;;
68310;SDS011;55157;51.036;17.058;2023-05-18T01:47:07;19.50;;;5.22;;
68310;SDS011;55157;51.036;17.058;2023-05-18T01:49:35;20.38;;;6.00;;
68310;SDS011;55157;51.036;17.058;2023-05-18T01:52:02;21.23;;;6.07;;
68310;SDS011;55157;51.036;17.058;2023-05-18T01:54:28;13.43;;;4.93;;
68310;SDS011;55157;51.036;17.058;2023-05-18T01:56:54;14.98;;;5.13;;
68310;SDS011;55157;51.036;17.058;2023-05-18T01:59:20;17.42;;;5.10;;
68310;SDS011;55157;51.036;17.058;2023-05-18T02:01:47;17.85;;;5.22;;
68310;SDS011;55157;51.036;17.058;2023-05-18T02:04:12;18.45;;;5.55;;
68310;SDS011;55157;51.036;17.058;2023-05-18T02:06:37;14.70;;;5.35;;
68310;SDS011;55157;51.036;17.058;2023-05-18T02:09:03;28.23;;;6.00;;
68310;SDS011;55157;51.036;17.058;2023-05-18T02:11:28;20.33;;;5.93;;
68310;SDS011;55157;51.036;17.058;2023-05-18T02:13:54;20.25;;;5.88;;
68310;SDS011;55157;51.036;17.058;2023-05-18T02:16:19;20.40;;;4.60;;
68310;SDS011;55157;51.036;17.058;2023-05-18T02:18:46;19.08;;;4.82;;
68310;SDS011;55157;51.036;17.058;2023-05-18T02:21:11;21.80;;;8.00;;
68310;SDS011;55157;51.036;17.058;2023-05-18T02:23:36;21.33;;;5.60;;
68310;SDS011;55157;51.036;17.058;2023-05-18T02:26:02;17.95;;;5.88;;
68310;SDS011;55157;51.036;17.058;2023-05-18T02:28:27;17.40;;;5.80;;
68310;SDS011;55157;51.036;17.058;2023-05-18T02:30:52;22.85;;;5.43;;
68310;SDS011;55157;51.036;17.058;2023-05-18T02:33:17;16.20;;;4.93;;
68310;SDS011;55157;51.036;17.058;2023-05-18T02:35:44;18.40;;;5.05;;
68310;SDS011;55157;51.036;17.058;2023-05-18T02:38:09;21.48;;;5.15;;
68310;SDS011;55157;51.036;17.058;2023-05-18T02:40:35;17.58;;;5.10;;
68310;SDS011;55157;51.036;17.058;2023-05-18T02:43:00;14.93;;;4.60;;
68310;SDS011;55157;51.036;17.058;2023-05-18T02:45:25;15.20;;;5.45;;
68310;SDS011;55157;51.036;17.058;2023-05-18T02:47:50;12.20;;;4.65;;
68310;SDS011;55157;51.036;17.058;2023-05-18T02:50:15;17.10;;;4.82;;
68310;SDS011;55157;51.036;17.058;2023-05-18T02:52:42;20.92;;;5.55;;
68310;SDS011;55157;51.036;17.058;2023-05-18T02:55:08;16.92;;;4.57;;
68310;SDS011;55157;51.036;17.058;2023-05-18T02:57:33;16.02;;;4.65;;
68310;SDS011;55157;51.036;17.058;2023-05-18T02:59:58;18.95;;;4.78;;
68310;SDS011;55157;51.036;17.058;2023-05-18T03:02:24;20.27;;;4.28;;
68310;SDS011;55157;51.036;17.058;2023-05-18T03:04:49;15.25;;;5.35;;
68310;SDS011;55157;51.036;17.058;2023-05-18T03:07:14;17.25;;;4.88;;
68310;SDS011;55157;51.036;17.058;2023-05-18T03:09:41;22.40;;;5.50;;
68310;SDS011;55157;51.036;17.058;2023-05-18T03:12:06;18.42;;;4.88;;
68310;SDS011;55157;51.036;17.058;2023-05-18T03:14:32;19.63;;;5.00;;
68310;SDS011;55157;51.036;17.058;2023-05-18T03:16:57;10.68;;;4.28;;
68310;SDS011;55157;51.036;17.058;2023-05-18T03:19:22;21.50;;;4.95;;
68310;SDS011;55157;51.036;17.058;2023-05-18T03:21:47;13.77;;;4.97;;
68310;SDS011;55157;51.036;17.058;2023-05-18T03:24:13;18.27;;;4.35;;
68310;SDS011;55157;51.036;17.058;2023-05-18T03:26:39;12.10;;;4.18;;
68310;SDS011;55157;51.036;17.058;2023-05-18T03:29:04;18.30;;;4.63;;
68310;SDS011;55157;51.036;17.058;2023-05-18T03:31:30;17.85;;;3.83;;
68310;SDS011;55157;51.036;17.058;2023-05-18T03:33:55;15.88;;;3.60;;
68310;SDS011;55157;51.036;17.058;2023-05-18T03:36:20;19.13;;;4.80;;
68310;SDS011;55157;51.036;17.058;2023-05-18T03:38:45;17.38;;;3.95;;
68310;SDS011;55157;51.036;17.058;2023-05-18T03:41:11;20.27;;;3.90;;
68310;SDS011;55157;51.036;17.058;2023-05-18T03:43:37;18.92;;;4.45;;
68310;SDS011;55157;51.036;17.058;2023-05-18T03:46:03;9.98;;;3.85;;
68310;SDS011;55157;51.036;17.058;2023-05-18T03:48:28;19.20;;;4.25;;
68310;SDS011;55157;51.036;17.058;2023-05-18T03:50:53;8.82;;;2.95;;
68310;SDS011;55157;51.036;17.058;2023-05-18T03:53:18;11.13;;;3.85;;
68310;SDS011;55157;51.036;17.058;2023-05-18T03:55:44;14.98;;;4.38;;
68310;SDS011;55157;51.036;17.058;2023-05-18T03:58:09;14.80;;;3.55;;
68310;SDS011;55157;51.036;17.058;2023-05-18T04:00:36;11.88;;;3.60;;
68310;SDS011;55157;51.036;17.058;2023-05-18T04:03:02;20.70;;;4.20;;
68310;SDS011;55157;51.036;17.058;2023-05-18T04:05:27;15.20;;;3.63;;
68310;SDS011;55157;51.036;17.058;2023-05-18T04:07:53;17.83;;;3.75;;
68310;SDS011;55157;51.036;17.058;2023-05-18T04:10:18;10.85;;;4.60;;
68310;SDS011;55157;51.036;17.058;2023-05-18T04:12:43;11.73;;;3.53;;
68310;SDS011;55157;51.036;17.058;2023-05-18T04:15:09;14.48;;;4.18;;
68310;SDS011;55157;51.036;17.058;2023-05-18T04:17:36;19.35;;;5.30;;
68310;SDS011;55157;51.036;17.058;2023-05-18T04:20:01;10.98;;;3.50;;
68310;SDS011;55157;51.036;17.058;2023-05-18T04:22:26;15.30;;;3.80;;
68310;SDS011;55157;51.036;17.058;2023-05-18T04:24:52;13.15;;;3.55;;
68310;SDS011;55157;51.036;17.058;2023-05-18T04:27:17;13.13;;;3.80;;
68310;SDS011;55157;51.036;17.058;2023-05-18T04:29:42;13.75;;;3.67;;
68310;SDS011;55157;51.036;17.058;2023-05-18T04:32:07;13.35;;;3.22;;
68310;SDS011;55157;51.036;17.058;2023-05-18T04:34:35;14.68;;;3.88;;
68310;SDS011;55157;51.036;17.058;2023-05-18T04:37:01;17.23;;;3.50;;
68310;SDS011;55157;51.036;17.058;2023-05-18T04:39:26;15.48;;;3.92;;
68310;SDS011;55157;51.036;17.058;2023-05-18T04:41:51;18.52;;;3.30;;
68310;SDS011;55157;51.036;17.058;2023-05-18T04:44:17;10.52;;;3.10;;
68310;SDS011;55157;51.036;17.058;2023-05-18T04:46:42;9.73;;;3.22;;
68310;SDS011;55157;51.036;17.058;2023-05-18T04:49:07;18.42;;;5.03;;
68310;SDS011;55157;51.036;17.058;2023-05-18T04:51:34;16.98;;;4.30;;
68310;SDS011;55157;51.036;17.058;2023-05-18T04:53:59;16.75;;;5.35;;
68310;SDS011;55157;51.036;17.058;2023-05-18T04:56:25;16.27;;;4.53;;
68310;SDS011;55157;51.036;17.058;2023-05-18T04:58:50;23.25;;;5.97;;
68310;SDS011;55157;51.036;17.058;2023-05-18T05:01:15;10.57;;;3.65;;
68310;SDS011;55157;51.036;17.058;2023-05-18T05:03:41;18.10;;;5.50;;
68310;SDS011;55157;51.036;17.058;2023-05-18T05:06:06;16.83;;;7.07;;
68310;SDS011;55157;51.036;17.058;2023-05-18T05:08:33;20.55;;;6.00;;
68310;SDS011;55157;51.036;17.058;2023-05-18T05:10:58;15.88;;;5.05;;
68310;SDS011;55157;51.036;17.058;2023-05-18T05:13:23;21.17;;;8.70;;
68310;SDS011;55157;51.036;17.058;2023-05-18T05:15:49;22.70;;;7.13;;
68310;SDS011;55157;51.036;17.058;2023-05-18T05:18:14;20.05;;;7.95;;
68310;SDS011;55157;51.036;17.058;2023-05-18T05:20:39;17.85;;;7.00;;
68310;SDS011;55157;51.036;17.058;2023-05-18T05:23:04;21.08;;;8.07;;
68310;SDS011;55157;51.036;17.058;2023-05-18T05:25:31;18.98;;;7.78;;
68310;SDS011;55157;51.036;17.058;2023-05-18T05:27:56;21.80;;;7.30;;
68310;SDS011;55157;51.036;17.058;2023-05-18T05:30:21;15.40;;;4.50;;
68310;SDS011;55157;51.036;17.058;2023-05-18T05:32:47;15.93;;;4.63;;
68310;SDS011;55157;51.036;17.058;2023-05-18T05:35:12;16.67;;;4.40;;
68310;SDS011;55157;51.036;17.058;2023-05-18T05:37:37;19.75;;;4.63;;
68310;SDS011;55157;51.036;17.058;2023-05-18T05:40:03;19.63;;;4.32;;
68310;SDS011;55157;51.036;17.058;2023-05-18T05:42:30;12.98;;;4.35;;
68310;SDS011;55157;51.036;17.058;2023-05-18T05:44:55;12.93;;;4.10;;
68310;SDS011;55157;51.036;17.058;2023-05-18T05:47:21;15.30;;;5.93;;
68310;SDS011;55157;51.036;17.058;2023-05-18T05:49:46;12.23;;;4.03;;
68310;SDS011;55157;51.036;17.058;2023-05-18T05:52:11;17.38;;;4.32;;
68310;SDS011;55157;51.036;17.058;2023-05-18T05:54:37;17.48;;;3.28;;
68310;SDS011;55157;51.036;17.058;2023-05-18T05:57:02;19.77;;;5.22;;
68310;SDS011;55157;51.036;17.058;2023-05-18T05:59:29;16.65;;;4.70;;
68310;SDS011;55157;51.036;17.058;2023-05-18T06:01:54;16.98;;;3.67;;
68310;SDS011;55157;51.036;17.058;2023-05-18T06:04:19;17.05;;;3.63;;
68310;SDS011;55157;51.036;17.058;2023-05-18T06:06:46;13.73;;;3.55;;
68310;SDS011;55157;51.036;17.058;2023-05-18T06:09:11;12.50;;;3.22;;
68310;SDS011;55157;51.036;17.058;2023-05-18T06:11:36;17.08;;;3.72;;
68310;SDS011;55157;51.036;17.058;2023-05-18T06:14:02;20.17;;;5.70;;
68310;SDS011;55157;51.036;17.058;2023-05-18T06:16:28;26.92;;;5.53;;
68310;SDS011;55157;51.036;17.058;2023-05-18T06:18:54;16.15;;;4.00;;
68310;SDS011;55157;51.036;17.058;2023-05-18T06:21:19;20.13;;;7.72;;
68310;SDS011;55157;51.036;17.058;2023-05-18T06:23:44;14.98;;;5.70;;
68310;SDS011;55157;51.036;17.058;2023-05-18T06:26:09;13.13;;;3.60;;
68310;SDS011;55157;51.036;17.058;2023-05-18T06:28:35;15.75;;;4.18;;
68310;SDS011;55157;51.036;17.058;2023-05-18T06:31:00;22.40;;;6.40;;
68310;SDS011;55157;51.036;17.058;2023-05-18T06:33:27;14.73;;;2.72;;
68310;SDS011;55157;51.036;17.058;2023-05-18T06:35:52;13.02;;;2.53;;
68310;SDS011;55157;51.036;17.058;2023-05-18T06:38:17;16.92;;;3.83;;
68310;SDS011;55157;51.036;17.058;2023-05-18T06:40:43;17.10;;;3.40;;
68310;SDS011;55157;51.036;17.058;2023-05-18T06:43:08;18.17;;;2.65;;
68310;SDS011;55157;51.036;17.058;2023-05-18T06:45:33;18.65;;;2.85;;
68310;SDS011;55157;51.036;17.058;2023-05-18T06:47:58;14.02;;;3.42;;
68310;SDS011;55157;51.036;17.058;2023-05-18T06:50:25;11.40;;;2.92;;
68310;SDS011;55157;51.036;17.058;2023-05-18T06:52:50;13.68;;;2.92;;
68310;SDS011;55157;51.036;17.058;2023-05-18T06:55:16;15.88;;;3.85;;
68310;SDS011;55157;51.036;17.058;2023-05-18T06:57:41;18.35;;;3.10;;
68310;SDS011;55157;51.036;17.058;2023-05-18T07:00:07;21.30;;;5.43;;
68310;SDS011;55157;51.036;17.058;2023-05-18T07:02:32;17.83;;;4.05;;
68310;SDS011;55157;51.036;17.058;2023-05-18T07:04:57;15.30;;;3.10;;
68310;SDS011;55157;51.036;17.058;2023-05-18T07:07:24;14.95;;;4.15;;
68310;SDS011;55157;51.036;17.058;2023-05-18T07:09:49;14.85;;;4.47;;
68310;SDS011;55157;51.036;17.058;2023-05-18T07:12:14;15.05;;;4.22;;
68310;SDS011;55157;51.036;17.058;2023-05-18T07:14:40;12.63;;;3.40;;
68310;SDS011;55157;51.036;17.058;2023-05-18T07:17:05;21.63;;;4.55;;
68310;SDS011;55157;51.036;17.058;2023-05-18T07:19:30;19.83;;;4.80;;
68310;SDS011;55157;51.036;17.058;2023-05-18T07:21:56;10.90;;;2.70;;
68310;SDS011;55157;51.036;17.058;2023-05-18T07:24:22;11.30;;;4.10;;
68310;SDS011;55157;51.036;17.058;2023-05-18T07:26:47;19.17;;;5.38;;
68310;SDS011;55157;51.036;17.058;2023-05-18T07:29:13;14.35;;;4.65;;
68310;SDS011;55157;51.036;17.058;2023-05-18T07:31:38;18.08;;;3.33;;
68310;SDS011;55157;51.036;17.058;2023-05-18T07:34:03;11.00;;;2.30;;
68310;SDS011;55157;51.036;17.058;2023-05-18T07:36:29;10.27;;;2.30;;
68310;SDS011;55157;51.036;17.058;2023-05-18T07:38:54;10.82;;;2.53;;
68310;SDS011;55157;51.036;17.058;2023-05-18T07:41:21;12.07;;;3.10;;
68310;SDS011;55157;51.036;17.058;2023-05-18T07:43:46;8.50;;;2.42;;
68310;SDS011;55157;51.036;17.058;2023-05-18T07:46:11;10.73;;;2.67;;
68310;SDS011;55157;51.036;17.058;2023-05-18T07:48:36;11.70;;;2.70;;
68310;SDS011;55157;51.036;17.058;2023-05-18T07:51:02;9.52;;;2.25;;
68310;SDS011;55157;51.036;17.058;2023-05-18T07:53:27;15.85;;;4.35;;
68310;SDS011;55157;51.036;17.058;2023-05-18T07:55:52;13.63;;;3.03;;
68310;SDS011;55157;51.036;17.058;2023-05-18T07:58:19;13.23;;;2.47;;
68310;SDS011;55157;51.036;17.058;2023-05-18T08:00:44;12.25;;;2.65;;
68310;SDS011;55157;51.036;17.058;2023-05-18T08:03:09;9.32;;;2.30;;
68310;SDS011;55157;51.036;17.058;2023-05-18T08:05:34;10.88;;;2.20;;
68310;SDS011;55157;51.036;17.058;2023-05-18T08:08:00;11.43;;;2.72;;
68310;SDS011;55157;51.036;17.058;2023-05-18T08:10:25;9.70;;;2.80;;
68310;SDS011;55157;51.036;17.058;2023-05-18T08:12:50;11.00;;;2.85;;
68310;SDS011;55157;51.036;17.058;2023-05-18T08:15:17;11.48;;;3.08;;
68310;SDS011;55157;51.036;17.058;2023-05-18T08:17:42;16.80;;;2.25;;
68310;SDS011;55157;51.036;17.058;2023-05-18T08:20:08;7.43;;;2.40;;
68310;SDS011;55157;51.036;17.058;2023-05-18T08:22:33;10.57;;;3.38;;
68310;SDS011;55157;51.036;17.058;2023-05-18T08:24:59;13.13;;;2.95;;
68310;SDS011;55157;51.036;17.058;2023-05-18T08:27:24;9.82;;;2.67;;
68310;SDS011;55157;51.036;17.058;2023-05-18T08:29:49;11.48;;;2.75;;
68310;SDS011;55157;51.036;17.058;2023-05-18T08:32:17;8.38;;;2.20;;
68310;SDS011;55157;51.036;17.058;2023-05-18T08:34:42;7.55;;;2.17;;
68310;SDS011;55157;51.036;17.058;2023-05-18T08:37:07;5.78;;;1.65;;
68310;SDS011;55157;51.036;17.058;2023-05-18T08:39:32;10.70;;;2.50;;
68310;SDS011;55157;51.036;17.058;2023-05-18T08:42:00;10.70;;;2.97;;
68310;SDS011;55157;51.036;17.058;2023-05-18T08:44:28;10.13;;;2.25;;
68310;SDS011;55157;51.036;17.058;2023-05-18T08:46:54;13.35;;;3.03;;
68310;SDS011;55157;51.036;17.058;2023-05-18T08:49:21;9.50;;;3.70;;
68310;SDS011;55157;51.036;17.058;2023-05-18T08:51:47;10.45;;;2.88;;
68310;SDS011;55157;51.036;17.058;2023-05-18T08:54:18;14.57;;;3.33;;
68310;SDS011;55157;51.036;17.058;2023-05-18T08:56:44;11.13;;;3.60;;
68310;SDS011;55157;51.036;17.058;2023-05-18T08:59:10;16.60;;;3.67;;
68310;SDS011;55157;51.036;17.058;2023-05-18T09:01:35;9.35;;;2.20;;
68310;SDS011;55157;51.036;17.058;2023-05-18T09:04:01;8.68;;;2.50;;
68310;SDS011;55157;51.036;17.058;2023-05-18T09:06:28;11.60;;;4.03;;
68310;SDS011;55157;51.036;17.058;2023-05-18T09:08:54;11.65;;;3.17;;
68310;SDS011;55157;51.036;17.058;2023-05-18T09:11:20;16.35;;;2.42;;
68310;SDS011;55157;51.036;17.058;2023-05-18T09:13:45;8.50;;;1.92;;
68310;SDS011;55157;51.036;17.058;2023-05-18T09:16:12;9.10;;;2.03;;
68310;SDS011;55157;51.036;17.058;2023-05-18T09:18:37;7.80;;;2.28;;
68310;SDS011;55157;51.036;17.058;2023-05-18T09:21:02;9.45;;;2.22;;
68310;SDS011;55157;51.036;17.058;2023-05-18T09:23:29;5.85;;;1.83;;
68310;SDS011;55157;51.036;17.058;2023-05-18T09:25:55;12.35;;;3.13;;
68310;SDS011;55157;51.036;17.058;2023-05-18T09:28:33;8.70;;;2.55;;
68310;SDS011;55157;51.036;17.058;2023-05-18T09:30:59;9.27;;;3.63;;
68310;SDS011;55157;51.036;17.058;2023-05-18T09:33:24;12.48;;;2.40;;
68310;SDS011;55157;51.036;17.058;2023-05-18T09:35:50;11.60;;;2.30;;
68310;SDS011;55157;51.036;17.058;2023-05-18T09:38:15;7.57;;;1.83;;
68310;SDS011;55157;51.036;17.058;2023-05-18T09:40:44;10.77;;;1.95;;
68310;SDS011;55157;51.036;17.058;2023-05-18T09:43:09;6.10;;;2.20;;
68310;SDS011;55157;51.036;17.058;2023-05-18T09:45:34;8.25;;;1.67;;
68310;SDS011;55157;51.036;17.058;2023-05-18T09:48:04;7.38;;;2.13;;
68310;SDS011;55157;51.036;17.058;2023-05-18T09:50:31;9.15;;;1.80;;
68310;SDS011;55157;51.036;17.058;2023-05-18T09:52:56;7.10;;;1.83;;
68310;SDS011;55157;51.036;17.058;2023-05-18T09:55:21;9.73;;;2.28;;
68310;SDS011;55157;51.036;17.058;2023-05-18T09:57:48;16.38;;;2.55;;
68310;SDS011;55157;51.036;17.058;2023-05-18T10:00:14;13.27;;;2.63;;
68310;SDS011;55157;51.036;17.058;2023-05-18T10:02:40;6.65;;;2.13;;
68310;SDS011;55157;51.036;17.058;2023-05-18T10:05:06;7.47;;;1.70;;
68310;SDS011;55157;51.036;17.058;2023-05-18T10:07:32;8.90;;;3.03;;
68310;SDS011;55157;51.036;17.058;2023-05-18T10:10:00;12.57;;;2.30;;
68310;SDS011;55157;51.036;17.058;2023-05-18T10:12:25;10.00;;;2.60;;
68310;SDS011;55157;51.036;17.058;2023-05-18T10:14:52;5.60;;;1.70;;
68310;SDS011;55157;51.036;17.058;2023-05-18T10:17:17;5.13;;;1.90;;
68310;SDS011;55157;51.036;17.058;2023-05-18T10:19:43;5.32;;;1.85;;
68310;SDS011;55157;51.036;17.058;2023-05-18T10:22:09;8.10;;;3.25;;
68310;SDS011;55157;51.036;17.058;2023-05-18T10:24:35;9.15;;;3.47;;
68310;SDS011;55157;51.036;17.058;2023-05-18T10:27:03;9.93;;;4.88;;
68310;SDS011;55157;51.036;17.058;2023-05-18T10:29:30;9.00;;;2.00;;
68310;SDS011;55157;51.036;17.058;2023-05-18T10:31:58;7.13;;;2.03;;
68310;SDS011;55157;51.036;17.058;2023-05-18T10:34:24;7.93;;;1.88;;
68310;SDS011;55157;51.036;17.058;2023-05-18T10:36:49;8.15;;;3.22;;
68310;SDS011;55157;51.036;17.058;2023-05-18T10:39:14;5.47;;;3.00;;
68310;SDS011;55157;51.036;17.058;2023-05-18T10:41:40;5.68;;;2.42;;
68310;SDS011;55157;51.036;17.058;2023-05-18T10:44:06;13.57;;;2.75;;
68310;SDS011;55157;51.036;17.058;2023-05-18T10:46:31;6.90;;;3.13;;
68310;SDS011;55157;51.036;17.058;2023-05-18T10:48:58;8.77;;;3.72;;
68310;SDS011;55157;51.036;17.058;2023-05-18T10:51:25;14.30;;;2.47;;
68310;SDS011;55157;51.036;17.058;2023-05-18T10:53:50;20.40;;;3.38;;
68310;SDS011;55157;51.036;17.058;2023-05-18T10:56:16;12.05;;;2.63;;
68310;SDS011;55157;51.036;17.058;2023-05-18T10:58:42;7.40;;;2.33;;
68310;SDS011;55157;51.036;17.058;2023-05-18T11:01:08;5.57;;;1.92;;
68310;SDS011;55157;51.036;17.058;2023-05-18T11:03:33;6.50;;;1.95;;
68310;SDS011;55157;51.036;17.058;2023-05-18T11:06:04;5.13;;;1.80;;
68310;SDS011;55157;51.036;17.058;2023-05-18T11:08:29;7.13;;;2.40;;
68310;SDS011;55157;51.036;17.058;2023-05-18T11:10:59;6.53;;;1.38;;
68310;SDS011;55157;51.036;17.058;2023-05-18T11:13:26;15.13;;;2.72;;
68310;SDS011;55157;51.036;17.058;2023-05-18T11:16:01;10.88;;;2.05;;
68310;SDS011;55157;51.036;17.058;2023-05-18T11:18:33;9.80;;;1.83;;
68310;SDS011;55157;51.036;17.058;2023-05-18T11:20:58;9.00;;;1.83;;
68310;SDS011;55157;51.036;17.058;2023-05-18T11:23:25;6.27;;;1.70;;
68310;SDS011;55157;51.036;17.058;2023-05-18T11:25:50;3.45;;;1.20;;
68310;SDS011;55157;51.036;17.058;2023-05-18T11:28:15;10.05;;;1.63;;
68310;SDS011;55157;51.036;17.058;2023-05-18T11:30:47;4.72;;;1.50;;
68310;SDS011;55157;51.036;17.058;2023-05-18T11:33:13;8.65;;;1.55;;
68310;SDS011;55157;51.036;17.058;2023-05-18T11:35:52;8.50;;;2.53;;
68310;SDS011;55157;51.036;17.058;2023-05-18T11:38:18;4.43;;;2.20;;
68310;SDS011;55157;51.036;17.058;2023-05-18T11:40:45;4.15;;;1.50;;
68310;SDS011;55157;51.036;17.058;2023-05-18T11:43:16;4.85;;;1.20;;
68310;SDS011;55157;51.036;17.058;2023-05-18T11:45:50;23.92;;;2.38;;
68310;SDS011;55157;51.036;17.058;2023-05-18T11:48:15;7.82;;;1.55;;
68310;SDS011;55157;51.036;17.058;2023-05-18T11:50:44;8.90;;;2.30;;
68310;SDS011;55157;51.036;17.058;2023-05-18T11:53:09;5.90;;;1.40;;
68310;SDS011;55157;51.036;17.058;2023-05-18T11:55:39;5.72;;;1.77;;
68310;SDS011;55157;51.036;17.058;2023-05-18T11:58:06;3.38;;;1.25;;
68310;SDS011;55157;51.036;17.058;2023-05-18T12:00:32;8.55;;;2.42;;
68310;SDS011;55157;51.036;17.058;2023-05-18T12:02:58;7.80;;;1.27;;
68310;SDS011;55157;51.036;17.058;2023-05-18T12:05:25;5.05;;;1.55;;
68310;SDS011;55157;51.036;17.058;2023-05-18T12:07:54;4.25;;;1.40;;
68310;SDS011;55157;51.036;17.058;2023-05-18T12:10:19;9.90;;;2.20;;
68310;SDS011;55157;51.036;17.058;2023-05-18T12:12:46;6.07;;;1.45;;
68310;SDS011;55157;51.036;17.058;2023-05-18T12:15:13;3.95;;;1.25;;
68310;SDS011;55157;51.036;17.058;2023-05-18T12:17:38;2.80;;;1.52;;
68310;SDS011;55157;51.036;17.058;2023-05-18T12:20:04;4.38;;;1.85;;
68310;SDS011;55157;51.036;17.058;2023-05-18T12:22:29;4.65;;;1.55;;
68310;SDS011;55157;51.036;17.058;2023-05-18T12:24:55;3.55;;;1.30;;
68310;SDS011;55157;51.036;17.058;2023-05-18T12:27:20;6.47;;;2.00;;
68310;SDS011;55157;51.036;17.058;2023-05-18T12:29:45;4.00;;;1.30;;
68310;SDS011;55157;51.036;17.058;2023-05-18T12:32:12;3.97;;;1.67;;
68310;SDS011;55157;51.036;17.058;2023-05-18T12:34:37;8.30;;;1.42;;
68310;SDS011;55157;51.036;17.058;2023-05-18T12:37:03;4.85;;;1.60;;
68310;SDS011;55157;51.036;17.058;2023-05-18T12:39:28;6.07;;;2.05;;
68310;SDS011;55157;51.036;17.058;2023-05-18T12:41:56;4.78;;;1.48;;
68310;SDS011;55157;51.036;17.058;2023-05-18T12:44:31;6.50;;;1.92;;
68310;SDS011;55157;51.036;17.058;2023-05-18T12:46:57;6.00;;;1.80;;
68310;SDS011;55157;51.036;17.058;2023-05-18T12:49:23;9.10;;;1.75;;
68310;SDS011;55157;51.036;17.058;2023-05-18T12:51:49;10.90;;;3.20;;
68310;SDS011;55157;51.036;17.058;2023-05-18T12:54:26;11.93;;;1.60;;
68310;SDS011;55157;51.036;17.058;2023-05-18T12:56:51;10.77;;;1.60;;
68310;SDS011;55157;51.036;17.058;2023-05-18T12:59:17;2.30;;;1.25;;
68310;SDS011;55157;51.036;17.058;2023-05-18T13:01:42;7.15;;;1.45;;
68310;SDS011;55157;51.036;17.058;2023-05-18T13:04:09;2.92;;;1.00;;
68310;SDS011;55157;51.036;17.058;2023-05-18T13:06:37;22.73;;;2.10;;
68310;SDS011;55157;51.036;17.058;2023-05-18T13:09:06;2.53;;;1.20;;
68310;SDS011;55157;51.036;17.058;2023-05-18T13:11:31;4.03;;;1.30;;
68310;SDS011;55157;51.036;17.058;2023-05-18T13:13:57;5.78;;;1.30;;
68310;SDS011;55157;51.036;17.058;2023-05-18T13:16:22;5.72;;;1.48;;
68310;SDS011;55157;51.036;17.058;2023-05-18T13:18:53;10.05;;;1.60;;
68310;SDS011;55157;51.036;17.058;2023-05-18T13:21:19;4.32;;;1.10;;
68310;SDS011;55157;51.036;17.058;2023-05-18T13:23:46;8.93;;;1.20;;
68310;SDS011;55157;51.036;17.058;2023-05-18T13:26:11;13.85;;;1.45;;
68310;SDS011;55157;51.036;17.058;2023-05-18T13:28:36;6.57;;;1.52;;
68310;SDS011;55157;51.036;17.058;2023-05-18T13:31:02;8.35;;;1.67;;
68310;SDS011;55157;51.036;17.058;2023-05-18T13:33:27;5.68;;;1.63;;
68310;SDS011;55157;51.036;17.058;2023-05-18T13:35:52;6.13;;;1.73;;
68310;SDS011;55157;51.036;17.058;2023-05-18T13:38:17;6.38;;;1.42;;
68310;SDS011;55157;51.036;17.058;2023-05-18T13:40:44;3.33;;;1.20;;
68310;SDS011;55157;51.036;17.058;2023-05-18T13:43:09;4.47;;;1.27;;
68310;SDS011;55157;51.036;17.058;2023-05-18T13:45:35;9.13;;;1.20;;
68310;SDS011;55157;51.036;17.058;2023-05-18T13:48:00;9.55;;;1.17;;
68310;SDS011;55157;51.036;17.058;2023-05-18T13:50:26;5.05;;;1.15;;
68310;SDS011;55157;51.036;17.058;2023-05-18T13:52:51;2.63;;;0.80;;
68310;SDS011;55157;51.036;17.058;2023-05-18T13:55:16;10.13;;;1.27;;
68310;SDS011;55157;51.036;17.058;2023-05-18T13:57:43;9.40;;;1.50;;
68310;SDS011;55157;51.036;17.058;2023-05-18T14:00:09;4.53;;;1.10;;
68310;SDS011;55157;51.036;17.058;2023-05-18T14:02:34;8.18;;;1.30;;
68310;SDS011;55157;51.036;17.058;2023-05-18T14:05:00;3.97;;;1.23;;
68310;SDS011;55157;51.036;17.058;2023-05-18T14:07:25;5.80;;;1.60;;
68310;SDS011;55157;51.036;17.058;2023-05-18T14:09:50;10.65;;;1.45;;
68310;SDS011;55157;51.036;17.058;2023-05-18T14:12:15;3.15;;;1.10;;
68310;SDS011;55157;51.036;17.058;2023-05-18T14:14:42;3.58;;;1.33;;
68310;SDS011;55157;51.036;17.058;2023-05-18T14:17:08;5.22;;;1.25;;
68310;SDS011;55157;51.036;17.058;2023-05-18T14:19:33;1.88;;;1.00;;